Time;durP1;ratioP1;P1;durP2;ratioP2;P2;SDS_P1;SDS_P2;PMS_P1;PMS_P2;Temp;Humidity;BMP_temperature;BMP_pressure;BME280_temperature;BME280_humidity;BME280_pressure;Samples;Min_cycle;Max_cycle;Signal;HPM_P1;HPM_P2
2023/03/22 00:00:28;;;;;;;1.40;1.30;;;;;;;21.51;39.76;100814.13;5046721;28;20545;-65
2023/03/22 00:02:56;;;;;;;1.48;1.38;;;;;;;21.48;39.81;100808.38;5042182;28;20042;-65
2023/03/22 00:05:22;;;;;;;1.27;1.17;;;;;;;21.51;39.70;100810.66;5042461;28;20052;-65
2023/03/22 00:07:53;;;;;;;1.40;1.30;;;;;;;21.54;39.60;100808.44;5042886;28;20037;-65
2023/03/22 00:10:19;;;;;;;2.13;1.35;;;;;;;21.40;39.61;100798.75;5038739;28;20055;-65
2023/03/22 00:12:45;;;;;;;1.85;1.23;;;;;;;21.35;39.93;100811.72;5041867;28;20033;-65
2023/03/22 00:15:11;;;;;;;1.42;1.33;;;;;;;21.48;39.48;100803.91;5034663;28;20037;-65
2023/03/22 00:17:37;;;;;;;1.25;1.15;;;;;;;21.38;39.76;100800.78;5039705;28;20041;-65
2023/03/22 00:20:05;;;;;;;1.88;1.45;;;;;;;21.33;39.80;100805.81;5043192;28;20472;-65
2023/03/22 00:22:33;;;;;;;1.67;1.52;;;;;;;21.41;39.55;100803.03;5046875;28;20055;-65
2023/03/22 00:24:59;;;;;;;1.45;1.35;;;;;;;21.34;39.63;100802.13;5041476;28;20044;-65
2023/03/22 00:27:24;;;;;;;2.17;1.27;;;;;;;21.26;39.87;100808.41;5042065;28;20042;-65
2023/03/22 00:29:52;;;;;;;1.42;1.20;;;;;;;21.30;39.57;100782.34;5063847;28;20037;-65
2023/03/22 00:32:17;;;;;;;3.10;1.50;;;;;;;21.21;39.83;100791.41;5046394;28;20063;-65
2023/03/22 00:34:43;;;;;;;1.60;1.50;;;;;;;21.33;39.78;100792.56;5036812;28;20045;-65
2023/03/22 00:37:08;;;;;;;1.65;1.40;;;;;;;21.30;39.72;100782.34;5048060;28;20037;-65
2023/03/22 00:39:34;;;;;;;2.17;1.42;;;;;;;21.24;39.78;100777.78;5041633;28;20044;-65
2023/03/22 00:42:00;;;;;;;1.27;1.20;;;;;;;21.19;40.16;100778.38;5042936;28;20076;-65
2023/03/22 00:44:25;;;;;;;1.88;1.63;;;;;;;21.24;39.85;100777.78;5052986;28;20037;-65
2023/03/22 00:46:51;;;;;;;1.40;1.30;;;;;;;21.22;39.60;100771.88;5049361;28;20068;-65
2023/03/22 00:49:17;;;;;;;1.48;1.35;;;;;;;21.17;39.72;100775.06;5046262;28;20069;-65
2023/03/22 00:51:43;;;;;;;1.40;1.30;;;;;;;21.10;39.95;100764.41;5042262;28;20032;-65
2023/03/22 00:54:09;;;;;;;1.55;1.20;;;;;;;21.07;39.84;100769.28;5048945;28;20029;-65
2023/03/22 00:56:36;;;;;;;1.27;1.17;;;;;;;21.15;39.88;100763.03;5056399;28;20123;-65
2023/03/22 00:59:12;;;;;;;1.48;1.20;;;;;;;21.08;39.70;100761.16;5041964;28;20041;-65
2023/03/22 01:01:39;;;;;;;1.50;1.30;;;;;;;21.06;40.09;100757.06;5045588;28;20379;-65
2023/03/22 01:04:05;;;;;;;1.30;1.20;;;;;;;21.15;39.72;100757.72;5047422;28;20132;-65
2023/03/22 01:06:34;;;;;;;2.22;1.30;;;;;;;21.12;39.86;100754.44;5048466;28;20091;-65
2023/03/22 01:09:00;;;;;;;1.57;1.30;;;;;;;21.11;39.59;100752.00;5046080;28;20067;-65
2023/03/22 01:11:26;;;;;;;1.30;1.20;;;;;;;21.10;39.85;100748.53;5050907;28;20107;-65
2023/03/22 01:13:53;;;;;;;1.42;1.30;;;;;;;21.07;39.97;100745.44;5049447;28;20042;-65
2023/03/22 01:16:19;;;;;;;1.05;1.00;;;;;;;21.06;39.68;100739.34;5041450;28;20055;-65
2023/03/22 01:18:44;;;;;;;1.20;1.10;;;;;;;21.06;39.72;100749.13;5040601;28;20034;-64
2023/03/22 01:21:10;;;;;;;1.40;1.27;;;;;;;21.09;39.82;100748.72;5040193;28;20040;-66
2023/03/22 01:23:36;;;;;;;2.50;1.30;;;;;;;21.05;39.85;100742.19;5041402;28;20080;-65
2023/03/22 01:26:03;;;;;;;0.95;0.95;;;;;;;21.00;39.86;100745.38;5060921;28;20118;-65
2023/03/22 01:28:29;;;;;;;1.77;1.20;;;;;;;21.07;39.72;100742.81;5042583;28;20033;-65
2023/03/22 01:30:55;;;;;;;1.25;1.15;;;;;;;21.05;39.61;100737.69;5041461;28;20108;-65
2023/03/22 01:33:21;;;;;;;1.92;1.33;;;;;;;20.99;39.83;100742.91;5043003;28;20123;-65
2023/03/22 01:35:47;;;;;;;1.83;1.23;;;;;;;20.97;39.85;100729.88;5039823;28;20053;-66
2023/03/22 01:38:12;;;;;;;1.52;1.20;;;;;;;21.00;39.67;100737.44;5043164;28;20045;-65
2023/03/22 01:40:47;;;;;;;1.58;1.35;;;;;;;20.98;39.83;100734.16;5042592;28;20147;-65
2023/03/22 01:43:15;;;;;;;1.63;1.30;;;;;;;20.99;39.77;100727.03;5062540;28;20040;-65
2023/03/22 01:45:49;;;;;;;1.55;1.27;;;;;;;21.02;39.59;100718.72;5042203;28;20041;-65
2023/03/22 01:48:26;;;;;;;1.80;1.30;;;;;;;20.98;39.66;100726.22;5053534;28;20063;-65
2023/03/22 01:51:02;;;;;;;1.20;1.10;;;;;;;21.02;39.82;100718.72;5049016;28;20652;-65
2023/03/22 01:53:33;;;;;;;1.63;1.33;;;;;;;20.95;39.80;100708.06;5075513;28;20033;-65
2023/03/22 01:56:00;;;;;;;1.63;1.10;;;;;;;20.93;39.86;100718.03;5044963;28;20029;-65
2023/03/22 01:58:30;;;;;;;1.17;1.10;;;;;;;20.94;39.84;100698.50;5037431;28;20029;-65
2023/03/22 02:01:00;;;;;;;2.05;1.20;;;;;;;20.95;39.90;100710.72;5056945;28;20034;-65
2023/03/22 02:03:49;;;;;;;2.47;1.48;;;;;;;20.94;39.79;100706.44;5048063;28;20058;-65
2023/03/22 02:06:17;;;;;;;1.33;0.90;;;;;;;20.86;39.99;100703.09;5044129;28;20479;-65
2023/03/22 02:08:43;;;;;;;2.20;1.27;;;;;;;20.97;39.69;100705.22;5039706;28;20043;-65
2023/03/22 02:11:20;;;;;;;1.45;1.33;;;;;;;20.94;39.92;100693.19;5047255;28;20383;-65
2023/03/22 02:14:04;;;;;;;1.20;1.10;;;;;;;20.85;39.81;100691.69;5057863;28;20045;-65
2023/03/22 02:17:16;;;;;;;2.85;1.10;;;;;;;20.88;39.74;100691.31;5042940;28;20068;-65
2023/03/22 02:20:23;;;;;;;1.63;1.50;;;;;;;20.91;39.73;100690.94;5037402;28;20056;-65
2023/03/22 02:23:26;;;;;;;1.10;1.00;;;;;;;20.88;39.87;100686.03;5030745;28;20490;-66
2023/03/22 02:25:55;;;;;;;1.55;1.17;;;;;;;20.89;39.88;100690.31;5039983;28;20034;-65
2023/03/22 02:28:59;;;;;;;1.20;1.10;;;;;;;20.89;39.68;100685.00;5040680;28;20063;-65
2023/03/22 02:31:51;;;;;;;1.35;1.25;;;;;;;20.81;39.91;100678.00;5060135;28;20041;-65
2023/03/22 02:34:48;;;;;;;0.80;0.80;;;;;;;20.84;39.69;100676.84;5046462;28;20495;-65
2023/03/22 02:37:48;;;;;;;1.42;1.27;;;;;;;20.87;39.89;100672.97;5045074;28;20544;-66
2023/03/22 02:40:26;;;;;;;1.38;1.20;;;;;;;20.82;39.82;100673.53;5041569;28;20609;-65
2023/03/22 02:42:58;;;;;;;0.88;0.88;;;;;;;20.79;40.03;100669.44;5042026;28;20069;-65
2023/03/22 02:45:32;;;;;;;0.95;0.95;;;;;;;20.84;39.67;100679.47;5028963;28;20390;-65
2023/03/22 02:48:03;;;;;;;1.80;1.08;;;;;;;20.83;39.83;100664.63;5051822;28;20429;-65
2023/03/22 02:50:38;;;;;;;2.10;0.98;;;;;;;20.77;40.02;100670.63;5046646;28;20037;-65
2023/03/22 02:53:15;;;;;;;1.48;0.90;;;;;;;20.78;39.82;100661.69;5052793;28;20138;-65
2023/03/22 02:55:57;;;;;;;1.15;0.90;;;;;;;20.77;39.89;100665.34;5040214;28;20132;-65
2023/03/22 02:58:32;;;;;;;2.25;0.90;;;;;;;20.72;40.04;100662.47;5045370;28;20056;-66
2023/03/22 03:01:06;;;;;;;1.30;1.08;;;;;;;20.81;39.85;100656.00;5034713;28;20036;-65
2023/03/22 03:03:36;;;;;;;1.20;1.10;;;;;;;20.77;39.79;100646.81;5042365;28;20033;-65
2023/03/22 03:06:09;;;;;;;1.35;1.00;;;;;;;20.78;39.66;100657.22;5045123;28;20038;-65
2023/03/22 03:08:36;;;;;;;1.05;1.00;;;;;;;20.84;39.74;100652.19;5047318;28;20033;-65
2023/03/22 03:11:02;;;;;;;1.15;1.08;;;;;;;20.79;39.94;100642.16;5045360;28;20029;-66
2023/03/22 03:13:28;;;;;;;1.92;1.00;;;;;;;20.73;39.83;100633.16;5045788;28;20424;-65
2023/03/22 03:15:58;;;;;;;1.95;1.10;;;;;;;20.76;39.73;100643.34;5038605;28;20528;-66
2023/03/22 03:18:37;;;;;;;1.70;1.17;;;;;;;20.73;39.68;100640.28;5048361;28;20064;-65
2023/03/22 03:21:15;;;;;;;1.42;1.10;;;;;;;20.77;39.72;100637.06;5033291;28;20050;-65
2023/03/22 03:23:41;;;;;;;1.25;1.10;;;;;;;20.71;40.06;100635.19;5041256;28;20041;-65
2023/03/22 03:26:17;;;;;;;1.55;0.95;;;;;;;20.67;39.99;100633.13;5037977;28;20065;-66
2023/03/22 03:29:01;;;;;;;1.23;0.90;;;;;;;20.66;39.93;100629.66;5046374;28;20041;-66
2023/03/22 03:31:29;;;;;;;1.70;1.05;;;;;;;20.71;39.98;100621.94;5044830;28;20060;-66
2023/03/22 03:34:02;;;;;;;1.13;0.95;;;;;;;20.71;39.82;100621.13;5037886;28;20152;-65
2023/03/22 03:36:36;;;;;;;2.65;1.20;;;;;;;20.69;39.99;100620.50;5043849;28;20531;-65
2023/03/22 03:39:08;;;;;;;1.98;1.15;;;;;;;20.58;40.04;100615.72;5041144;28;20097;-66
2023/03/22 03:41:34;;;;;;;1.23;1.13;;;;;;;20.60;40.03;100616.34;5044429;28;20025;-66
2023/03/22 03:44:00;;;;;;;2.35;0.93;;;;;;;20.64;39.97;100612.31;5050379;28;20053;-65
2023/03/22 03:46:28;;;;;;;0.75;0.65;;;;;;;20.64;39.85;100604.38;5043690;28;20052;-66
2023/03/22 03:48:56;;;;;;;0.75;0.55;;;;;;;20.65;39.81;100612.13;5040515;28;20037;-65
2023/03/22 03:51:21;;;;;;;1.27;0.80;;;;;;;20.65;39.86;100606.03;5034692;28;20123;-66
2023/03/22 03:53:47;;;;;;;1.48;0.82;;;;;;;20.62;39.68;100590.50;5039361;28;20182;-65
2023/03/22 03:56:13;;;;;;;2.22;1.20;;;;;;;20.68;39.83;100600.34;5036153;28;20029;-65
2023/03/22 03:58:43;;;;;;;1.33;0.90;;;;;;;20.71;39.79;100605.25;5040401;28;20673;-65
2023/03/22 04:01:09;;;;;;;2.08;0.93;;;;;;;20.56;39.90;100586.81;5042180;28;20040;-65
2023/03/22 04:03:49;;;;;;;0.60;0.55;;;;;;;20.63;39.76;100594.78;5075123;28;20031;-65
2023/03/22 04:06:33;;;;;;;1.50;1.02;;;;;;;20.56;40.04;100592.09;5044689;28;20045;-65
2023/03/22 04:09:03;;;;;;;1.67;1.00;;;;;;;20.61;39.81;100588.88;5040817;28;20043;-66
2023/03/22 04:11:32;;;;;;;0.77;0.60;;;;;;;20.64;39.95;100580.56;5040692;28;20037;-65
2023/03/22 04:14:00;;;;;;;0.60;0.60;;;;;;;20.64;39.74;100576.06;5040622;28;20041;-65
2023/03/22 04:16:26;;;;;;;1.90;0.93;;;;;;;20.63;39.76;100578.91;5037261;28;20562;-65
2023/03/22 04:18:52;;;;;;;1.80;0.85;;;;;;;20.64;39.45;100577.91;5040931;28;20043;-66
2023/03/22 04:21:18;;;;;;;0.95;0.70;;;;;;;20.53;39.86;100566.03;5038532;28;20110;-65
2023/03/22 04:23:56;;;;;;;1.55;0.80;;;;;;;20.51;40.00;100571.50;5040914;28;20097;-65
2023/03/22 04:26:22;;;;;;;1.15;0.95;;;;;;;20.58;40.01;100573.38;5046564;28;20041;-65
2023/03/22 04:29:26;;;;;;;1.40;0.90;;;;;;;20.63;39.82;100574.44;5047427;28;20115;-65
2023/03/22 04:32:02;;;;;;;0.88;0.73;;;;;;;20.59;39.77;100577.66;5040183;28;20044;-66
2023/03/22 04:34:37;;;;;;;2.50;1.20;;;;;;;20.57;39.84;100572.56;5043709;28;20051;-66
2023/03/22 04:37:08;;;;;;;1.25;1.00;;;;;;;20.58;39.93;100576.03;5041967;28;20039;-65
2023/03/22 04:39:47;;;;;;;1.77;1.00;;;;;;;20.59;39.80;100573.19;5042408;28;20120;-65
2023/03/22 04:42:34;;;;;;;0.95;0.90;;;;;;;20.54;39.92;100561.56;5044252;28;20048;-66
2023/03/22 04:45:22;;;;;;;1.77;1.10;;;;;;;20.51;40.06;100575.97;5043042;28;20065;-65
2023/03/22 04:47:55;;;;;;;1.05;0.80;;;;;;;20.54;39.93;100577.44;5032009;28;20037;-65
2023/03/22 04:50:20;;;;;;;1.42;1.10;;;;;;;20.54;39.99;100567.66;5037663;28;20033;-65
2023/03/22 04:52:50;;;;;;;0.80;0.80;;;;;;;20.59;39.96;100581.13;5045042;28;20078;-66
2023/03/22 04:55:16;;;;;;;0.85;0.85;;;;;;;20.51;39.99;100566.22;5041587;28;20041;-66
2023/03/22 04:57:43;;;;;;;2.08;0.95;;;;;;;20.47;39.87;100559.69;5046229;28;20048;-65
2023/03/22 05:00:10;;;;;;;1.40;1.00;;;;;;;20.51;39.94;100566.22;5052018;28;20059;-65
2023/03/22 05:02:39;;;;;;;1.67;1.10;;;;;;;20.44;40.22;100557.41;5040453;28;20041;-65
2023/03/22 05:05:06;;;;;;;1.30;0.82;;;;;;;20.48;39.90;100548.09;5049467;28;20029;-65
2023/03/22 05:07:38;;;;;;;1.95;1.08;;;;;;;20.51;40.01;100560.94;5092186;28;20036;-66
2023/03/22 05:10:05;;;;;;;1.27;1.17;;;;;;;20.50;39.87;100561.13;5044924;28;20071;-65
2023/03/22 05:12:31;;;;;;;1.00;0.80;;;;;;;20.53;39.79;100550.16;5046107;28;20037;-65
2023/03/22 05:15:11;;;;;;;1.58;1.00;;;;;;;20.51;40.02;100544.25;5041681;28;20037;-66
2023/03/22 05:17:38;;;;;;;0.75;0.75;;;;;;;20.40;40.27;100547.38;5037044;28;20033;-65
2023/03/22 05:20:08;;;;;;;1.65;1.02;;;;;;;20.44;40.09;100533.59;5043558;28;20052;-65
2023/03/22 05:22:39;;;;;;;1.80;1.15;;;;;;;20.43;40.09;100528.50;5035299;28;20041;-65
2023/03/22 05:25:06;;;;;;;1.23;1.13;;;;;;;20.50;39.97;100526.75;5043987;28;20045;-65
2023/03/22 05:27:33;;;;;;;1.60;1.20;;;;;;;20.29;40.03;100492.31;5040916;28;20034;-66
2023/03/22 05:30:21;;;;;;;1.80;1.08;;;;;;;20.46;39.84;100520.16;5050347;28;20045;-65
2023/03/22 05:33:01;;;;;;;1.00;0.82;;;;;;;20.48;39.98;100516.34;5050929;28;20033;-65
2023/03/22 05:35:28;;;;;;;1.77;1.13;;;;;;;20.48;39.89;100519.00;5049315;28;20102;-65
2023/03/22 05:37:56;;;;;;;1.20;1.08;;;;;;;20.49;39.94;100515.34;5039629;28;20041;-66
2023/03/22 05:40:23;;;;;;;1.92;1.20;;;;;;;20.39;40.09;100519.28;5041639;28;20111;-65
2023/03/22 05:42:49;;;;;;;2.10;1.40;;;;;;;20.41;40.10;100510.19;5035770;28;20026;-66
2023/03/22 05:45:20;;;;;;;1.02;0.93;;;;;;;20.46;39.98;100513.06;5045671;28;20032;-66
2023/03/22 05:47:54;;;;;;;4.15;1.40;;;;;;;20.41;40.15;100518.09;5040874;28;20043;-66
2023/03/22 05:50:22;;;;;;;1.10;1.00;;;;;;;20.37;40.12;100516.81;5043603;28;20067;-65
2023/03/22 05:52:48;;;;;;;1.10;0.85;;;;;;;20.29;40.24;100500.25;5045564;28;20129;-66
2023/03/22 05:55:26;;;;;;;1.20;1.10;;;;;;;20.40;40.07;100499.75;5039972;28;20032;-66
2023/03/22 05:58:00;;;;;;;2.25;1.42;;;;;;;20.25;40.14;100483.16;5038464;28;20098;-66
2023/03/22 06:00:30;;;;;;;0.93;0.90;;;;;;;20.43;39.96;100510.78;5045435;28;20037;-65
2023/03/22 06:03:29;;;;;;;1.67;1.13;;;;;;;20.23;40.30;100491.28;5042997;28;20072;-65
2023/03/22 06:06:09;;;;;;;1.70;1.30;;;;;;;20.33;40.08;100493.59;5041413;28;20067;-66
2023/03/22 06:08:41;;;;;;;1.13;1.02;;;;;;;20.28;40.19;100499.44;5041293;28;20520;-65
2023/03/22 06:11:07;;;;;;;1.33;0.98;;;;;;;20.41;40.27;100501.41;5063601;28;20037;-66
2023/03/22 06:13:34;;;;;;;1.58;1.05;;;;;;;20.28;40.25;100494.16;5045800;28;20037;-66
2023/03/22 06:16:01;;;;;;;1.35;1.17;;;;;;;20.38;40.01;100499.13;5047846;28;20048;-66
2023/03/22 06:18:27;;;;;;;2.03;1.30;;;;;;;20.33;40.15;100493.59;5046012;28;20124;-66
2023/03/22 06:21:01;;;;;;;2.70;1.38;;;;;;;20.13;40.24;100467.81;5041580;28;20061;-65
2023/03/22 06:23:27;;;;;;;1.70;1.48;;;;;;;20.33;40.06;100498.91;5075060;28;20127;-66
2023/03/22 06:25:53;;;;;;;1.67;1.42;;;;;;;20.41;40.06;100481.09;5050283;28;20032;-66
2023/03/22 06:28:19;;;;;;;1.08;1.08;;;;;;;20.31;40.22;100477.94;5044351;28;20094;-66
2023/03/22 06:30:49;;;;;;;1.05;0.95;;;;;;;20.36;40.18;100467.59;5047745;28;20135;-66
2023/03/22 06:33:28;;;;;;;1.03;1.03;;;;;;;20.40;40.05;100468.03;5047097;28;20045;-66
2023/03/22 06:36:00;;;;;;;1.23;1.13;;;;;;;20.23;40.06;100455.06;5040141;28;20100;-67
2023/03/22 06:38:33;;;;;;;2.55;1.30;;;;;;;20.25;40.39;100465.47;5040871;28;20049;-66
2023/03/22 06:40:58;;;;;;;1.45;1.30;;;;;;;20.26;40.45;100456.50;5041748;28;20036;-66
2023/03/22 06:43:24;;;;;;;1.23;1.10;;;;;;;20.29;40.17;100464.09;5041544;28;20127;-66
2023/03/22 06:45:56;;;;;;;1.30;1.20;;;;;;;20.27;40.29;100476.66;5055400;28;20045;-66
2023/03/22 06:48:28;;;;;;;1.83;1.40;;;;;;;20.25;40.34;100475.22;5039197;28;20045;-65
2023/03/22 06:51:02;;;;;;;1.40;1.20;;;;;;;20.29;40.27;100452.66;5049190;28;20032;-65
2023/03/22 06:53:35;;;;;;;2.13;1.33;;;;;;;20.27;40.10;100471.38;5047773;28;20033;-66
2023/03/22 06:56:02;;;;;;;1.38;1.27;;;;;;;20.36;40.20;100475.53;5047490;28;20132;-66
2023/03/22 06:58:28;;;;;;;1.38;1.27;;;;;;;20.26;40.36;100468.91;5039608;28;20391;-66
2023/03/22 07:00:55;;;;;;;3.72;1.40;;;;;;;20.22;40.37;100479.88;5037177;28;20047;-66
2023/03/22 07:03:22;;;;;;;1.80;1.45;;;;;;;20.26;40.46;100469.72;5034204;28;20801;-65
2023/03/22 07:05:52;;;;;;;1.50;1.25;;;;;;;20.22;40.35;100469.31;5038023;28;20047;-66
2023/03/22 07:08:18;;;;;;;1.42;1.20;;;;;;;20.22;40.35;100466.66;5039180;28;20033;-66
2023/03/22 07:10:49;;;;;;;;;;;;;;;20.20;40.35;100460.75;5039419;28;20025;-66
2023/03/22 07:13:16;;;;;;;1.83;1.25;;;;;;;20.23;40.39;100476.22;5041208;28;20019;-66
2023/03/22 07:15:42;;;;;;;2.05;1.40;;;;;;;20.26;40.18;100464.44;5047674;28;20033;-66
2023/03/22 07:18:16;;;;;;;0.95;0.95;;;;;;;20.23;40.42;100463.00;5044461;28;20036;-66
2023/03/22 07:20:42;;;;;;;1.85;1.45;;;;;;;20.22;40.43;100456.09;5043450;28;20064;-66
2023/03/22 07:23:09;;;;;;;2.13;1.40;;;;;;;20.20;40.36;100455.47;5041842;28;20037;-66
2023/03/22 07:25:46;;;;;;;1.45;1.33;;;;;;;20.28;40.27;100456.31;5030684;28;20033;-66
2023/03/22 07:28:19;;;;;;;3.33;1.70;;;;;;;20.23;40.30;100463.00;5042172;28;20041;-66
2023/03/22 07:30:45;;;;;;;1.55;1.30;;;;;;;20.21;40.32;100462.38;5041501;28;20041;-66
2023/03/22 07:33:11;;;;;;;1.75;1.50;;;;;;;20.19;40.38;100464.41;5044791;28;20107;-66
2023/03/22 07:35:37;;;;;;;1.75;1.08;;;;;;;20.31;40.08;100456.78;5039061;28;20143;-66
2023/03/22 07:38:04;;;;;;;1.95;1.50;;;;;;;20.25;40.35;100457.53;5041838;28;20037;-65
2023/03/22 07:40:31;;;;;;;1.60;1.25;;;;;;;20.26;40.32;100461.00;5036693;28;20780;-66
2023/03/22 07:42:57;;;;;;;1.58;1.08;;;;;;;20.28;40.33;100457.13;5039091;28;20041;-66
2023/03/22 07:45:36;;;;;;;1.20;1.10;;;;;;;20.49;39.89;100458.97;5041734;28;20029;-66
2023/03/22 07:48:21;;;;;;;2.20;1.48;;;;;;;20.81;39.93;100452.25;5046164;28;20052;-67
2023/03/22 07:51:03;;;;;;;2.65;1.50;;;;;;;20.90;39.55;100461.69;5026408;28;20039;-68
2023/03/22 07:53:29;;;;;;;2.05;1.40;;;;;;;21.29;38.46;100460.25;5044560;28;20049;-69
2023/03/22 07:55:55;;;;;;;1.48;1.23;;;;;;;21.35;38.28;100454.16;5037060;28;20037;-68
2023/03/22 07:58:21;;;;;;;1.00;1.00;;;;;;;21.41;38.20;100448.91;5035678;28;20036;-67
2023/03/22 08:00:48;;;;;;;1.38;0.90;;;;;;;21.50;38.29;100456.66;5040795;28;20061;-66
2023/03/22 08:03:33;;;;;;;1.45;1.33;;;;;;;21.50;38.38;100464.59;5044193;28;20135;-67
2023/03/22 08:06:06;;;;;;;2.05;1.23;;;;;;;21.45;38.16;100453.78;5046062;28;20029;-67
2023/03/22 08:08:35;;;;;;;1.15;1.05;;;;;;;21.41;38.07;100448.09;5038124;28;20168;-66
2023/03/22 08:11:02;;;;;;;1.48;1.30;;;;;;;21.38;38.30;100462.53;5041873;28;20494;-66
2023/03/22 08:13:28;;;;;;;2.03;1.10;;;;;;;21.39;38.19;100450.94;5064850;28;20414;-66
2023/03/22 08:15:54;;;;;;;1.65;1.10;;;;;;;21.25;38.41;100449.25;5048913;28;20037;-67
2023/03/22 08:18:19;;;;;;;1.58;1.33;;;;;;;21.30;38.67;100441.50;5038135;28;20114;-66
2023/03/22 08:20:45;;;;;;;1.27;1.13;;;;;;;21.23;38.65;100445.13;5042277;28;20041;-67
2023/03/22 08:23:16;;;;;;;2.55;1.20;;;;;;;21.18;38.61;100455.47;5044976;28;20049;-66
2023/03/22 08:26:00;;;;;;;2.70;1.10;;;;;;;21.26;38.64;100448.22;5044464;28;20052;-67
2023/03/22 08:28:26;;;;;;;1.33;1.23;;;;;;;21.24;38.87;100460.84;5021278;28;20038;-67
2023/03/22 08:30:52;;;;;;;2.47;1.10;;;;;;;21.04;39.11;100454.63;5046843;28;20036;-67
2023/03/22 08:33:22;;;;;;;1.38;1.13;;;;;;;20.96;39.24;100454.78;5041090;28;20048;-67
2023/03/22 08:35:49;;;;;;;1.30;1.20;;;;;;;20.92;39.19;100441.13;5042174;28;20100;-67
2023/03/22 08:38:16;;;;;;;1.80;1.17;;;;;;;21.01;39.01;100441.78;5038724;28;20597;-67
2023/03/22 08:40:46;;;;;;;;;;;;;;;20.96;39.20;100442.34;5035367;28;20037;-67
2023/03/22 08:43:12;;;;;;;1.95;1.27;;;;;;;20.84;39.59;100427.25;5045568;28;19921;-66
2023/03/22 08:45:37;;;;;;;2.03;1.40;;;;;;;20.77;39.69;100417.41;5044583;28;20036;-67
2023/03/22 08:48:09;;;;;;;1.05;0.95;;;;;;;20.89;39.63;100428.28;5049599;28;20075;-66
2023/03/22 08:50:54;;;;;;;1.13;0.98;;;;;;;20.75;39.75;100430.03;5038551;28;20461;-67
2023/03/22 08:53:28;;;;;;;1.30;1.20;;;;;;;20.90;39.72;100432.56;5037680;28;20045;-66
2023/03/22 08:56:09;;;;;;;1.35;1.10;;;;;;;20.89;39.70;100433.56;5065378;28;20045;-66
2023/03/22 08:58:55;;;;;;;1.52;1.13;;;;;;;20.81;40.01;100423.13;5040761;28;20041;-66
2023/03/22 09:01:37;;;;;;;1.20;1.10;;;;;;;20.85;39.96;100423.59;5048843;28;20049;-66
2023/03/22 09:04:04;;;;;;;1.35;1.25;;;;;;;20.78;39.89;100420.88;5042805;28;20041;-67
2023/03/22 09:06:31;;;;;;;1.55;1.27;;;;;;;20.73;40.02;100425.94;5049425;28;20044;-66
2023/03/22 09:08:56;;;;;;;2.35;1.33;;;;;;;20.70;40.31;100427.16;5047093;28;20053;-66
2023/03/22 09:11:23;;;;;;;1.08;1.00;;;;;;;20.77;40.17;100424.53;5042324;28;20052;-66
2023/03/22 09:13:49;;;;;;;0.95;0.95;;;;;;;20.75;40.18;100422.09;5047169;28;20040;-66
2023/03/22 09:16:16;;;;;;;1.80;1.10;;;;;;;20.76;40.18;100423.72;5048975;28;20033;-67
2023/03/22 09:18:43;;;;;;;1.50;1.40;;;;;;;20.73;40.32;100426.78;5040865;28;20033;-67
2023/03/22 09:21:13;;;;;;;1.48;1.00;;;;;;;20.76;40.28;100436.97;5042957;28;20073;-66
2023/03/22 09:23:59;;;;;;;1.98;1.40;;;;;;;20.71;40.44;100431.44;5046668;28;20049;-67
2023/03/22 09:26:36;;;;;;;2.60;1.23;;;;;;;20.65;40.42;100423.47;5048785;28;20025;-67
2023/03/22 09:29:02;;;;;;;1.40;1.27;;;;;;;20.67;40.49;100437.31;5046084;28;20052;-66
2023/03/22 09:31:27;;;;;;;1.38;1.10;;;;;;;20.75;40.39;100430.03;5037941;28;20041;-66
2023/03/22 09:34:19;;;;;;;0.90;0.90;;;;;;;20.71;40.30;100417.41;5048082;28;20084;-66
2023/03/22 09:36:46;;;;;;;1.00;0.85;;;;;;;20.78;40.17;100429.63;5044067;28;20052;-66
2023/03/22 09:39:15;;;;;;;0.98;0.82;;;;;;;20.68;40.59;100425.72;5041722;28;20037;-66
2023/03/22 09:41:47;;;;;;;1.85;1.15;;;;;;;20.73;40.30;100434.72;5040544;28;20044;-67
2023/03/22 09:44:23;;;;;;;2.10;1.20;;;;;;;20.64;40.56;100427.09;5041788;28;20783;-66
2023/03/22 09:46:56;;;;;;;1.65;1.10;;;;;;;20.61;40.63;100435.44;5072207;28;20036;-66
2023/03/22 09:49:31;;;;;;;1.70;0.90;;;;;;;20.66;40.54;100422.47;5046766;28;20043;-66
2023/03/22 09:51:57;;;;;;;2.25;1.15;;;;;;;20.65;40.37;100420.84;5045903;28;20047;-66
2023/03/22 09:54:37;;;;;;;0.95;0.88;;;;;;;20.67;40.55;100421.44;5043601;28;20046;-66
2023/03/22 09:57:25;;;;;;;1.08;0.95;;;;;;;20.70;40.35;100419.22;5042188;28;20033;-66
2023/03/22 10:00:10;;;;;;;2.70;1.23;;;;;;;20.72;40.50;100424.31;5046965;28;20041;-66
2023/03/22 10:03:21;;;;;;;2.17;1.30;;;;;;;20.66;40.72;100419.81;5043910;28;20829;-66
2023/03/22 10:05:50;;;;;;;;;;;;;;;20.75;40.35;100416.81;4998116;28;20109;-66
2023/03/22 10:08:42;;;;;;;1.83;1.05;;;;;;;20.77;40.15;100428.00;5036804;28;20647;-67
2023/03/22 10:11:37;;;;;;;1.20;1.10;;;;;;;20.63;40.87;100428.94;5043135;28;20048;-67
2023/03/22 10:14:27;;;;;;;1.73;1.10;;;;;;;20.75;40.31;100423.94;5043770;28;20063;-67
2023/03/22 10:16:55;;;;;;;1.73;0.95;;;;;;;20.67;40.58;100418.81;5037240;28;20037;-67
2023/03/22 10:19:23;;;;;;;1.40;1.30;;;;;;;20.66;40.78;100431.22;5040737;28;20033;-67
2023/03/22 10:21:51;;;;;;;1.77;1.10;;;;;;;20.75;40.46;100431.88;5040910;28;20179;-67
2023/03/22 10:24:28;;;;;;;1.73;1.27;;;;;;;20.71;40.71;100441.22;5044051;28;20044;-67
2023/03/22 10:26:54;;;;;;;1.27;0.95;;;;;;;20.68;40.41;100429.19;5045495;28;20029;-67
2023/03/22 10:29:39;;;;;;;1.50;1.40;;;;;;;20.96;40.20;100423.00;5047034;28;20037;-67
2023/03/22 10:32:15;;;;;;;0.90;0.88;;;;;;;21.10;39.54;100419.41;5042530;28;20392;-67
2023/03/22 10:34:42;;;;;;;1.15;0.93;;;;;;;21.13;39.54;100430.41;5048977;28;20041;-67
2023/03/22 10:37:15;;;;;;;1.83;1.20;;;;;;;21.20;39.35;100433.09;5050759;28;20123;-67
2023/03/22 10:39:45;;;;;;;1.27;1.17;;;;;;;21.22;39.63;100432.91;5056753;28;20040;-67
2023/03/22 10:42:15;;;;;;;1.17;0.90;;;;;;;21.27;39.48;100439.25;5047453;28;20049;-67
2023/03/22 10:44:49;;;;;;;;;;;;;;;21.23;39.54;100432.72;5048896;28;20040;-67
2023/03/22 10:47:18;;;;;;;1.23;1.13;;;;;;;21.11;39.74;100431.63;5044256;28;20354;-67
2023/03/22 10:49:51;;;;;;;2.05;1.05;;;;;;;21.03;39.65;100434.47;5043990;28;20051;-67
2023/03/22 10:52:24;;;;;;;1.65;0.90;;;;;;;21.07;39.85;100425.91;5040452;28;20039;-67
2023/03/22 10:54:50;;;;;;;1.17;1.00;;;;;;;21.06;39.99;100440.19;5039163;28;20099;-67
2023/03/22 10:57:16;;;;;;;0.77;0.70;;;;;;;21.12;39.68;100444.66;5044278;28;20100;-67
2023/03/22 10:59:51;;;;;;;4.28;1.38;;;;;;;21.11;39.89;100442.22;5050795;28;20037;-68
2023/03/22 11:02:27;;;;;;;1.25;0.85;;;;;;;21.04;39.84;100447.50;5051177;28;20150;-67
2023/03/22 11:04:59;;;;;;;1.00;0.90;;;;;;;20.93;39.99;100440.09;5050167;28;20113;-67
2023/03/22 11:07:32;;;;;;;1.25;1.00;;;;;;;20.99;40.00;100449.91;5040931;28;21067;-67
2023/03/22 11:10:09;;;;;;;2.05;1.17;;;;;;;21.01;39.82;100447.09;5040324;28;20048;-68
2023/03/22 11:12:39;;;;;;;0.80;0.80;;;;;;;20.99;39.75;100446.44;5042666;28;20037;-67
2023/03/22 11:15:18;;;;;;;1.17;0.95;;;;;;;20.98;40.05;100453.56;5044955;28;20158;-67
2023/03/22 11:17:44;;;;;;;0.93;0.90;;;;;;;20.99;39.85;100441.13;5041518;28;20080;-67
2023/03/22 11:20:15;;;;;;;1.02;0.73;;;;;;;20.91;40.24;100447.44;5039080;28;20057;-67
2023/03/22 11:22:44;;;;;;;1.15;0.80;;;;;;;20.79;40.18;100441.84;5044391;28;20092;-67
2023/03/22 11:25:27;;;;;;;1.42;1.00;;;;;;;20.77;40.28;100443.06;5042601;28;20041;-67
2023/03/22 11:28:05;;;;;;;1.98;1.10;;;;;;;20.87;40.32;100448.84;5040716;28;20465;-67
2023/03/22 11:30:35;;;;;;;0.93;0.82;;;;;;;20.80;40.32;100448.78;5042327;28;20678;-67
2023/03/22 11:33:07;;;;;;;1.10;0.93;;;;;;;20.85;40.35;100436.81;5042845;28;20040;-67
2023/03/22 11:35:35;;;;;;;1.48;1.00;;;;;;;20.89;40.29;100441.50;5043598;28;20046;-67
2023/03/22 11:38:01;;;;;;;1.88;1.20;;;;;;;20.88;40.17;100445.19;5042948;28;20049;-67
2023/03/22 11:40:30;;;;;;;1.98;1.10;;;;;;;20.76;40.49;100436.97;5043022;28;20648;-67
2023/03/22 11:43:21;;;;;;;1.13;1.05;;;;;;;20.89;40.32;100432.75;5036997;28;20037;-66
2023/03/22 11:45:52;;;;;;;0.98;0.98;;;;;;;20.81;40.36;100428.44;5038255;28;20037;-68
2023/03/22 11:48:21;;;;;;;1.23;1.13;;;;;;;20.68;40.20;100393.97;5041663;28;20068;-67